Time;durP1;ratioP1;P1;durP2;ratioP2;P2;SDS_P1;SDS_P2;PMS_P1;PMS_P2;Temp;Humidity;BMP_temperature;BMP_pressure;BME280_temperature;BME280_humidity;BME280_pressure;Samples;Min_cycle;Max_cycle;Signal;HPM_P1;HPM_P2
2023/02/24 00:01:36;;;;;;;12.10;4.70;;;;;;;7.20;94.92;100438.06;5047426;28;20158;-36
2023/02/24 00:04:06;;;;;;;11.68;4.43;;;;;;;7.12;95.11;100419.63;5048003;28;20033;-33
2023/02/24 00:06:36;;;;;;;16.77;5.22;;;;;;;7.13;94.58;100421.28;5047848;28;20033;-34
2023/02/24 00:09:07;;;;;;;11.75;4.43;;;;;;;7.27;94.30;100447.94;5048117;28;20048;-33
2023/02/24 00:11:35;;;;;;;11.48;5.03;;;;;;;6.95;96.95;100442.09;5047518;28;20481;-35
2023/02/24 00:14:04;;;;;;;11.10;4.68;;;;;;;7.42;93.76;100435.44;5047642;28;20059;-36
2023/02/24 00:16:31;;;;;;;13.98;4.30;;;;;;;7.12;94.12;100422.28;5047704;28;20029;-38
2023/02/24 00:18:57;;;;;;;14.15;5.07;;;;;;;7.18;94.96;100428.66;5047690;28;20031;-34
2023/02/24 00:21:22;;;;;;;11.25;4.30;;;;;;;7.33;93.89;100425.97;5047606;28;20041;-33
2023/02/24 00:23:48;;;;;;;11.65;4.32;;;;;;;7.27;93.11;100419.56;5047575;28;20029;-34
2023/02/24 00:26:15;;;;;;;13.75;4.63;;;;;;;7.30;93.92;100426.34;5047700;28;20037;-36
2023/02/24 00:28:41;;;;;;;12.70;4.65;;;;;;;7.21;94.58;100425.63;5047357;28;20021;-34
2023/02/24 00:31:14;;;;;;;11.75;4.45;;;;;;;6.94;95.07;100405.97;5047761;28;20036;-33
2023/02/24 00:33:41;;;;;;;12.07;4.53;;;;;;;6.97;95.64;100417.03;5047667;28;20660;-34
2023/02/24 00:36:10;;;;;;;12.60;5.13;;;;;;;6.97;95.63;100405.59;5048065;28;20020;-33
2023/02/24 00:38:37;;;;;;;11.40;5.05;;;;;;;7.01;95.31;100409.53;5047218;28;20087;-35
2023/02/24 00:41:13;;;;;;;12.70;4.95;;;;;;;6.93;95.46;100391.06;5047081;28;20128;-36
2023/02/24 00:43:48;;;;;;;11.98;4.55;;;;;;;6.86;95.40;100404.22;5047383;28;20799;-37
2023/02/24 00:46:20;;;;;;;12.50;5.20;;;;;;;6.89;95.92;100413.66;5047597;28;20064;-35
2023/02/24 00:48:47;;;;;;;10.50;4.47;;;;;;;6.99;94.82;100400.94;5047321;28;20413;-35
2023/02/24 00:51:15;;;;;;;16.60;5.63;;;;;;;7.17;93.78;100395.19;5047166;28;20512;-39
2023/02/24 00:53:42;;;;;;;;;;;;;;;7.06;94.76;100399.16;5047471;28;20028;-37
2023/02/24 00:56:12;;;;;;;14.35;6.10;;;;;;;6.81;95.57;100375.63;5047559;28;19912;-38
2023/02/24 00:58:38;;;;;;;16.27;5.40;;;;;;;6.86;95.11;100388.31;5047244;28;20029;-35
2023/02/24 01:01:07;;;;;;;15.80;5.22;;;;;;;6.94;93.91;100374.94;5047172;28;20412;-33
2023/02/24 01:03:33;;;;;;;15.52;6.00;;;;;;;6.69;94.79;100366.53;5046905;28;20033;-38
2023/02/24 01:06:02;;;;;;;12.27;4.80;;;;;;;6.84;95.46;100385.03;5047096;28;20085;-34
2023/02/24 01:08:28;;;;;;;11.30;4.97;;;;;;;6.86;95.16;100379.56;5047428;28;20032;-33
2023/02/24 01:13:44;;;;;;;17.98;5.25;;;;;;;7.08;93.93;100381.22;5047119;28;20803;-33
2023/02/24 01:16:13;;;;;;;15.77;5.70;;;;;;;6.90;94.45;100376.34;5046972;28;20564;-36
2023/02/24 01:18:39;;;;;;;16.42;5.63;;;;;;;6.77;94.80;100376.19;5046967;28;20036;-35
2023/02/24 01:21:05;;;;;;;12.57;5.90;;;;;;;6.81;93.88;100365.03;5047157;28;20033;-35
2023/02/24 01:23:31;;;;;;;16.52;5.72;;;;;;;6.88;93.64;100370.41;5046976;28;20449;-33
2023/02/24 01:25:58;;;;;;;14.23;4.78;;;;;;;6.76;93.91;100367.44;5046957;28;20025;-32
2023/02/24 01:28:25;;;;;;;18.87;5.93;;;;;;;6.75;94.45;100367.63;5046958;28;20047;-34
2023/02/24 01:30:52;;;;;;;15.77;5.45;;;;;;;6.69;94.39;100363.88;5046704;28;20263;-35
2023/02/24 01:33:17;;;;;;;14.98;4.90;;;;;;;6.78;93.56;100357.47;5046527;28;20216;-37
2023/02/24 01:35:43;;;;;;;14.32;5.25;;;;;;;6.65;93.93;100354.66;5047035;28;20511;-35
2023/02/24 01:38:10;;;;;;;15.43;5.97;;;;;;;6.78;93.89;100369.88;5046915;28;20036;-32
2023/02/24 01:40:35;;;;;;;17.20;5.47;;;;;;;6.67;94.46;100373.84;5046478;28;20417;-33
2023/02/24 01:43:01;;;;;;;17.20;7.07;;;;;;;6.72;94.71;100370.63;5046718;28;20037;-30
2023/02/24 01:45:28;;;;;;;17.58;6.25;;;;;;;6.52;95.58;100360.63;5046863;28;20033;-37
2023/02/24 01:48:02;;;;;;;15.77;6.32;;;;;;;6.61;96.20;100356.84;5046654;28;20098;-34
2023/02/24 01:50:28;;;;;;;14.88;5.50;;;;;;;6.71;95.09;100371.66;5047326;28;20108;-36
2023/02/24 01:52:57;;;;;;;14.63;5.38;;;;;;;6.62;95.55;100363.81;5050299;28;20025;-33
2023/02/24 01:55:32;;;;;;;13.55;5.20;;;;;;;6.71;94.99;100372.47;5050176;28;20032;-35
2023/02/24 01:58:03;;;;;;;14.48;6.22;;;;;;;6.54;95.03;100365.72;5050042;28;20035;-37
2023/02/24 02:00:43;;;;;;;17.27;6.40;;;;;;;6.56;94.41;100369.84;5050375;28;20036;-37
2023/02/24 02:03:32;;;;;;;24.92;9.40;;;;;;;6.62;95.73;100365.63;5050330;28;20139;-34
2023/02/24 02:06:06;;;;;;;31.33;12.82;;;;;;;6.59;94.12;100350.09;5050304;28;20100;-37
2023/02/24 02:08:35;;;;;;;15.20;7.50;;;;;;;6.76;93.19;100364.78;5050185;28;20021;-35
2023/02/24 02:11:07;;;;;;;20.75;8.65;;;;;;;6.52;94.00;100344.72;5050145;28;20025;-36
2023/02/24 02:13:37;;;;;;;13.45;5.38;;;;;;;6.48;94.60;100340.81;5050082;28;20408;-33
2023/02/24 02:16:28;;;;;;;15.73;5.93;;;;;;;6.88;92.48;100364.28;5050351;28;20090;-34
2023/02/24 02:19:07;;;;;;;16.65;5.78;;;;;;;6.82;92.65;100366.69;5049736;28;20100;-34
2023/02/24 02:22:01;;;;;;;14.52;5.43;;;;;;;6.84;92.27;100358.53;5049772;28;20738;-37
2023/02/24 02:24:59;;;;;;;14.45;6.10;;;;;;;6.79;92.89;100356.44;5049884;28;20051;-34
2023/02/24 02:27:52;;;;;;;20.00;9.35;;;;;;;6.93;91.65;100367.22;5048870;28;20045;-36
2023/02/24 02:30:54;;;;;;;17.98;7.10;;;;;;;6.73;91.69;100333.34;5050178;28;20029;-36
2023/02/24 02:33:38;;;;;;;13.65;4.90;;;;;;;6.65;91.89;100359.94;5049454;28;20505;-35
2023/02/24 02:36:11;;;;;;;15.88;6.05;;;;;;;6.52;93.02;100354.47;5049674;28;20862;-36
2023/02/24 02:38:56;;;;;;;18.65;6.15;;;;;;;6.63;92.72;100354.81;5049626;28;20033;-39
2023/02/24 02:41:40;;;;;;;17.85;6.10;;;;;;;6.76;91.65;100353.34;5049026;28;20130;-36
2023/02/24 02:44:21;;;;;;;15.35;5.57;;;;;;;6.77;90.94;100353.16;5047951;28;20059;-37
2023/02/24 02:47:02;;;;;;;19.35;5.35;;;;;;;6.82;90.68;100353.44;5049576;28;20095;-33
2023/02/24 02:49:39;;;;;;;14.98;5.40;;;;;;;6.62;90.27;100339.94;5049113;28;20531;-36
2023/02/24 02:52:12;;;;;;;15.20;4.85;;;;;;;6.55;92.05;100365.53;5049196;28;20029;-35
2023/02/24 02:54:49;;;;;;;15.27;4.90;;;;;;;6.57;91.99;100368.00;5049246;28;20029;-35
2023/02/24 02:57:23;;;;;;;12.23;5.18;;;;;;;6.84;91.32;100369.97;5048998;28;20393;-38
2023/02/24 03:00:09;;;;;;;14.95;6.28;;;;;;;6.89;90.32;100368.59;5049247;28;20037;-34
2023/02/24 03:02:40;;;;;;;13.13;5.70;;;;;;;7.02;89.18;100371.38;5049037;28;20492;-35
2023/02/24 03:05:09;;;;;;;13.52;6.10;;;;;;;6.80;89.71;100358.09;5049140;28;20059;-34
2023/02/24 03:07:41;;;;;;;13.40;4.65;;;;;;;6.91;88.90;100359.44;5049078;28;20024;-33
2023/02/24 03:10:21;;;;;;;18.85;5.05;;;;;;;6.85;89.60;100357.53;5049038;28;20141;-37
2023/02/24 03:12:52;;;;;;;12.52;4.97;;;;;;;6.76;89.69;100356.84;5048919;28;20028;-33
2023/02/24 03:15:20;;;;;;;15.52;5.50;;;;;;;6.70;90.22;100339.03;5046988;28;20033;-33
2023/02/24 03:17:48;;;;;;;19.02;6.38;;;;;;;7.03;88.57;100357.13;5047748;28;20029;-34
2023/02/24 03:20:28;;;;;;;19.70;5.78;;;;;;;6.97;87.89;100340.13;5048624;28;20043;-37
2023/02/24 03:23:25;;;;;;;16.05;5.72;;;;;;;6.93;88.39;100356.59;5048796;28;20067;-34
2023/02/24 03:25:53;;;;;;;14.25;4.95;;;;;;;6.82;89.41;100356.09;5047713;28;20041;-36
2023/02/24 03:28:27;;;;;;;12.45;4.82;;;;;;;7.18;87.63;100365.81;5048894;28;20024;-32
2023/02/24 03:31:06;;;;;;;16.20;5.75;;;;;;;6.75;88.18;100323.38;5048834;28;20056;-33
2023/02/24 03:33:37;;;;;;;12.63;4.97;;;;;;;7.00;87.37;100352.19;5048142;28;20120;-38
2023/02/24 03:36:04;;;;;;;13.82;5.05;;;;;;;6.93;87.65;100378.63;5048409;28;20116;-38
2023/02/24 03:38:32;;;;;;;19.63;6.32;;;;;;;7.11;86.76;100364.09;5048253;28;20471;-33
2023/02/24 03:40:58;;;;;;;13.75;5.40;;;;;;;7.19;85.64;100372.78;5048123;28;20052;-35
2023/02/24 03:43:28;;;;;;;14.40;4.38;;;;;;;6.86;86.98;100347.75;5048206;28;20586;-36
2023/02/24 03:45:55;;;;;;;12.20;4.35;;;;;;;6.91;87.80;100366.56;5048241;28;20028;-36
2023/02/24 03:48:21;;;;;;;16.45;4.57;;;;;;;7.08;86.61;100359.19;5048340;28;20025;-38
2023/02/24 03:50:48;;;;;;;11.05;4.35;;;;;;;6.94;87.09;100368.84;5047877;28;20025;-33
2023/02/24 03:53:43;;;;;;;11.65;4.88;;;;;;;7.14;86.36;100369.06;5047980;28;20033;-39
2023/02/24 03:56:27;;;;;;;16.30;5.00;;;;;;;6.88;86.43;100369.59;5048079;28;20098;-35
2023/02/24 03:59:13;;;;;;;13.05;4.90;;;;;;;7.03;86.33;100367.72;5047767;28;20044;-34
2023/02/24 04:01:45;;;;;;;11.57;4.60;;;;;;;6.97;86.58;100364.00;5048033;28;20781;-33
2023/02/24 04:04:29;;;;;;;12.93;4.55;;;;;;;7.03;86.59;100351.81;5047870;28;20033;-33
2023/02/24 04:07:16;;;;;;;15.43;5.57;;;;;;;7.11;85.44;100351.69;5048029;28;20036;-36
2023/02/24 04:09:57;;;;;;;14.25;5.22;;;;;;;7.22;84.83;100348.53;5048101;28;20025;-34
2023/02/24 04:12:25;;;;;;;19.77;12.00;;;;;;;7.04;86.12;100348.13;5047976;28;20091;-33
2023/02/24 04:15:06;;;;;;;28.92;18.75;;;;;;;7.08;86.20;100337.97;5047296;28;20432;-36
2023/02/24 04:17:36;;;;;;;36.58;19.38;;;;;;;7.10;85.33;100342.09;5047247;28;20409;-38
2023/02/24 04:20:15;;;;;;;18.40;9.52;;;;;;;7.27;84.38;100339.16;5048500;28;20037;-35
2023/02/24 04:22:44;;;;;;;13.70;7.63;;;;;;;7.23;84.40;100331.59;5047864;28;20052;-37
2023/02/24 04:25:12;;;;;;;15.35;6.80;;;;;;;7.28;83.71;100335.53;5047606;28;20086;-37
2023/02/24 04:27:41;;;;;;;21.23;8.65;;;;;;;7.24;83.80;100325.28;5047606;28;20052;-35
2023/02/24 04:30:09;;;;;;;13.43;5.80;;;;;;;7.26;82.74;100313.66;5047524;28;20055;-36
2023/02/24 04:32:36;;;;;;;12.07;4.68;;;;;;;7.17;83.91;100316.47;5046134;28;20024;-34
2023/02/24 04:35:08;;;;;;;14.10;7.20;;;;;;;7.09;84.06;100323.69;5047557;28;20493;-35
2023/02/24 04:37:34;;;;;;;11.35;5.32;;;;;;;7.02;84.19;100299.78;5047252;28;20036;-39
2023/02/24 04:40:00;;;;;;;15.07;5.30;;;;;;;7.06;84.51;100319.59;5047576;28;20052;-38
2023/02/24 04:42:27;;;;;;;31.70;14.48;;;;;;;7.17;84.07;100321.75;5047339;28;20057;-37
2023/02/24 04:44:53;;;;;;;23.70;9.10;;;;;;;6.92;84.85;100307.22;5047091;28;20052;-35
2023/02/24 04:47:19;;;;;;;12.82;6.47;;;;;;;6.98;84.64;100312.59;5047454;28;20033;-35
2023/02/24 04:49:44;;;;;;;17.90;6.50;;;;;;;7.04;84.73;100314.47;5047269;28;20036;-34
2023/02/24 04:52:10;;;;;;;21.58;9.45;;;;;;;6.92;85.89;100317.84;5047399;28;20048;-35
2023/02/24 04:54:36;;;;;;;17.35;8.02;;;;;;;7.00;85.18;100310.56;5047159;28;20167;-36
2023/02/24 04:57:04;;;;;;;15.73;5.60;;;;;;;6.92;84.66;100286.00;5047338;28;20420;-34
2023/02/24 04:59:30;;;;;;;26.02;11.55;;;;;;;6.97;84.97;100299.53;5046932;28;20048;-35
2023/02/24 05:02:00;;;;;;;28.23;13.48;;;;;;;7.13;84.84;100299.28;5047287;28;20488;-33
2023/02/24 05:04:26;;;;;;;27.92;13.82;;;;;;;6.98;85.30;100301.97;5047605;28;20044;-35
2023/02/24 05:06:52;;;;;;;43.97;19.25;;;;;;;6.79;85.72;100284.88;5047298;28;20037;-33
2023/02/24 05:09:17;;;;;;;29.40;13.02;;;;;;;6.84;85.58;100285.16;5046986;28;20516;-36
2023/02/24 05:11:47;;;;;;;20.73;10.15;;;;;;;6.81;86.02;100300.59;5046768;28;20041;-35
2023/02/24 05:14:14;;;;;;;20.50;8.48;;;;;;;6.82;86.48;100281.03;5047179;28;20028;-35
2023/02/24 05:16:44;;;;;;;35.90;19.40;;;;;;;7.01;85.99;100298.16;5047178;28;20036;-33
2023/02/24 05:22:01;;;;;;;13.70;6.20;;;;;;;6.68;87.04;100296.00;5047209;28;20043;-36
2023/02/24 05:24:29;;;;;;;29.00;11.10;;;;;;;6.84;86.42;100273.69;5046627;28;20131;-33
2023/02/24 05:26:58;;;;;;;16.33;7.03;;;;;;;6.78;86.81;100296.50;5049409;28;20036;-34
2023/02/24 05:29:27;;;;;;;64.15;24.55;;;;;;;6.62;87.01;100286.94;5050666;28;20033;-34
2023/02/24 05:31:53;;;;;;;;;;;;;;;6.65;87.74;100306.94;5051213;28;20025;-37
2023/02/24 05:34:18;;;;;;;158.23;49.80;;;;;;;6.69;88.33;100310.88;5050893;28;19913;-33
2023/02/24 05:36:45;;;;;;;190.02;60.08;;;;;;;6.83;86.94;100287.97;5050546;28;20033;-37
2023/02/24 05:39:11;;;;;;;97.55;38.80;;;;;;;6.94;86.64;100310.50;5050957;28;20028;-33
2023/02/24 05:41:40;;;;;;;61.17;26.05;;;;;;;7.05;85.63;100312.66;5049812;28;20049;-35
2023/02/24 05:44:11;;;;;;;69.32;37.40;;;;;;;7.10;85.62;100310.25;5050635;28;20029;-33
2023/02/24 05:46:39;;;;;;;48.00;23.90;;;;;;;6.98;86.32;100314.44;5050551;28;20462;-33
2023/02/24 05:49:08;;;;;;;267.63;83.18;;;;;;;7.09;85.24;100292.72;5050431;28;20056;-34
2023/02/24 05:51:35;;;;;;;70.22;20.60;;;;;;;7.12;84.87;100297.63;5050000;28;20179;-37
2023/02/24 05:54:03;;;;;;;110.57;39.67;;;;;;;6.95;85.56;100291.75;5050595;28;20094;-37
2023/02/24 05:56:29;;;;;;;;;;;;;;;7.25;84.79;100323.44;5051107;28;20056;-33
2023/02/24 05:59:00;;;;;;;135.02;38.40;;;;;;;7.15;84.44;100326.44;5050412;28;19948;-37
2023/02/24 06:01:40;;;;;;;122.97;36.90;;;;;;;7.33;84.11;100327.78;5050070;28;20543;-39
2023/02/24 06:04:07;;;;;;;131.32;45.88;;;;;;;7.32;84.02;100320.88;5050160;28;20035;-33
2023/02/24 06:06:38;;;;;;;89.25;33.13;;;;;;;6.98;84.80;100301.97;5050320;28;20057;-31
2023/02/24 06:09:08;;;;;;;57.05;24.50;;;;;;;7.14;84.96;100326.63;5050304;28;20064;-33
2023/02/24 06:11:34;;;;;;;16.05;8.48;;;;;;;7.17;84.05;100318.25;5049840;28;20035;-34
2023/02/24 06:14:00;;;;;;;23.30;10.90;;;;;;;7.15;84.76;100322.94;5050031;28;20020;-35
2023/02/24 06:16:26;;;;;;;23.73;10.98;;;;;;;7.10;84.31;100331.47;5049920;28;20032;-35
2023/02/24 06:18:56;;;;;;;45.13;24.17;;;;;;;7.36;83.79;100327.44;5048628;28;20036;-35
2023/02/24 06:21:28;;;;;;;73.93;37.17;;;;;;;7.24;84.00;100303.25;5049646;28;20817;-33
2023/02/24 06:23:54;;;;;;;38.00;19.67;;;;;;;7.39;84.00;100319.88;5049716;28;20056;-31
2023/02/24 06:26:20;;;;;;;36.72;15.93;;;;;;;7.24;83.23;100309.34;5049904;28;20032;-34
2023/02/24 06:28:46;;;;;;;41.63;21.90;;;;;;;7.44;82.64;100308.72;5049622;28;20025;-35
2023/02/24 06:31:13;;;;;;;28.35;12.73;;;;;;;7.49;82.47;100324.88;5049689;28;20029;-34
2023/02/24 06:33:40;;;;;;;37.33;19.25;;;;;;;7.57;82.73;100316.75;5049784;28;20033;-38
2023/02/24 06:36:06;;;;;;;34.28;17.58;;;;;;;7.70;81.01;100299.28;5048126;28;20390;-34
2023/02/24 06:38:36;;;;;;;32.20;13.23;;;;;;;7.85;80.49;100307.97;5049488;28;20040;-36
2023/02/24 06:41:09;;;;;;;35.40;17.42;;;;;;;7.64;80.64;100298.22;5049086;28;20467;-35
2023/02/24 06:43:44;;;;;;;18.67;8.75;;;;;;;7.54;81.12;100316.31;5048967;28;20826;-33
2023/02/24 06:46:12;;;;;;;24.40;10.73;;;;;;;7.58;81.56;100313.13;5049620;28;20033;-35
2023/02/24 06:48:37;;;;;;;13.98;6.25;;;;;;;7.58;81.20;100299.00;5049459;28;20027;-38
2023/02/24 06:51:15;;;;;;;18.02;6.38;;;;;;;7.62;80.40;100281.66;5049187;28;20025;-34
2023/02/24 06:53:42;;;;;;;;;;;;;;;8.03;79.96;100316.25;5049858;28;20021;-37
2023/02/24 06:56:16;;;;;;;20.40;8.75;;;;;;;8.00;78.51;100295.38;5049205;28;20015;-35
2023/02/24 06:58:44;;;;;;;21.83;8.35;;;;;;;7.80;79.30;100286.50;5049371;28;20178;-36
2023/02/24 07:01:12;;;;;;;21.48;10.52;;;;;;;7.88;79.26;100301.44;5049197;28;20029;-41
2023/02/24 07:03:38;;;;;;;18.95;8.00;;;;;;;7.78;79.64;100281.38;5048942;28;20493;-40
2023/02/24 07:06:22;;;;;;;25.52;12.02;;;;;;;7.93;78.85;100294.53;5049021;28;20090;-34
2023/02/24 07:08:51;;;;;;;50.35;21.05;;;;;;;8.10;77.54;100284.41;5049266;28;20029;-34
2023/02/24 07:11:18;;;;;;;18.85;9.45;;;;;;;7.93;78.50;100294.53;5048696;28;20036;-37
2023/02/24 07:13:48;;;;;;;22.95;11.35;;;;;;;8.26;77.13;100288.56;5049086;28;20051;-38
2023/02/24 07:16:15;;;;;;;44.55;17.52;;;;;;;7.99;77.84;100283.13;5048865;28;20174;-36
2023/02/24 07:18:42;;;;;;;16.58;6.25;;;;;;;7.98;76.83;100286.78;5048833;28;20198;-37
2023/02/24 07:21:15;;;;;;;86.00;39.50;;;;;;;8.18;76.42;100289.56;5048540;28;20033;-33
2023/02/24 07:23:44;;;;;;;44.20;19.58;;;;;;;8.28;75.73;100265.28;5049131;28;20054;-33
2023/02/24 07:26:17;;;;;;;98.32;45.90;;;;;;;8.48;74.85;100275.19;5048746;28;20025;-35
2023/02/24 07:28:48;;;;;;;60.40;27.33;;;;;;;8.59;74.91;100269.28;5048781;28;20040;-33
2023/02/24 07:31:20;;;;;;;96.32;46.22;;;;;;;8.59;74.20;100261.31;5048271;28;20032;-38
2023/02/24 07:33:46;;;;;;;153.52;69.13;;;;;;;8.45;74.93;100276.41;5046857;28;20037;-35
2023/02/24 07:36:21;;;;;;;78.47;41.40;;;;;;;8.78;74.15;100265.03;5037332;28;20040;-35
2023/02/24 07:38:51;;;;;;;90.20;44.45;;;;;;;8.75;73.38;100260.94;5046793;28;20089;-39
2023/02/24 07:41:21;;;;;;;45.75;23.40;;;;;;;8.69;73.08;100256.44;5027873;28;20049;-33
2023/02/24 07:43:49;;;;;;;44.67;18.17;;;;;;;8.81;72.03;100260.13;5028198;28;20509;-36
2023/02/24 07:46:18;;;;;;;;;;;;;;;9.39;70.80;100278.16;5041797;28;20072;-34
2023/02/24 07:48:45;;;;;;;15.30;4.93;;;;;;;8.91;72.08;100278.38;5047475;28;19916;-35
2023/02/24 07:51:16;;;;;;;21.20;10.63;;;;;;;8.97;72.81;100263.41;5047891;28;20033;-38
2023/02/24 07:53:42;;;;;;;11.73;4.53;;;;;;;9.12;71.88;100272.03;5048038;28;20043;-35
2023/02/24 07:56:13;;;;;;;15.82;5.60;;;;;;;9.18;72.02;100276.53;5047944;28;20463;-40
2023/02/24 07:58:56;;;;;;;28.70;13.15;;;;;;;9.58;70.05;100276.53;5047919;28;20033;-34
2023/02/24 08:01:26;;;;;;;13.93;4.70;;;;;;;9.55;69.36;100268.94;5047733;28;20028;-40
2023/02/24 08:03:59;;;;;;;12.60;6.88;;;;;;;9.77;68.46;100271.38;5043064;28;20091;-37
2023/02/24 08:06:42;;;;;;;20.92;12.25;;;;;;;9.56;69.75;100262.59;5027686;28;20040;-40
2023/02/24 08:09:17;;;;;;;44.53;25.20;;;;;;;9.98;68.19;100265.75;5026738;28;20029;-40
2023/02/24 08:11:52;;;;;;;21.98;13.00;;;;;;;9.93;68.98;100272.75;5027755;28;20091;-37
2023/02/24 08:14:31;;;;;;;13.27;7.55;;;;;;;10.13;66.86;100267.34;5027979;28;20049;-32
2023/02/24 08:16:58;;;;;;;13.90;7.20;;;;;;;10.28;67.01;100265.25;5025445;28;20091;-34
2023/02/24 08:19:31;;;;;;;13.48;5.68;;;;;;;10.34;65.88;100275.09;5027331;28;20037;-37
2023/02/24 08:22:06;;;;;;;15.70;5.15;;;;;;;10.23;66.56;100275.72;5027722;28;20040;-34
2023/02/24 08:24:34;;;;;;;14.35;4.75;;;;;;;10.14;66.64;100269.81;5027770;28;20110;-33
2023/02/24 08:27:03;;;;;;;11.57;5.03;;;;;;;10.24;65.81;100256.03;5027581;28;20029;-37
2023/02/24 08:29:56;;;;;;;10.75;4.88;;;;;;;10.61;64.80;100264.31;5027470;28;20125;-38
2023/02/24 08:32:33;;;;;;;12.82;4.85;;;;;;;10.62;65.77;100252.59;5027565;28;20068;-33
2023/02/24 08:35:04;;;;;;;12.80;6.50;;;;;;;10.70;65.28;100272.84;5027551;28;20083;-34
2023/02/24 08:37:38;;;;;;;15.02;9.20;;;;;;;10.65;64.49;100244.16;5027452;28;20109;-33
2023/02/24 08:43:15;;;;;;;20.55;8.95;;;;;;;10.65;64.84;100265.50;5027755;28;20053;-35
2023/02/24 08:45:55;;;;;;;16.00;6.57;;;;;;;10.86;64.43;100251.81;5027645;28;20046;-36
2023/02/24 08:48:35;;;;;;;16.83;9.35;;;;;;;10.96;63.39;100271.88;5027220;28;20032;-37
2023/02/24 08:51:33;;;;;;;18.27;8.63;;;;;;;11.08;64.21;100259.47;5027484;28;20036;-34
2023/02/24 08:54:02;;;;;;;16.52;8.23;;;;;;;10.79;63.39;100235.03;5026468;28;20041;-37
2023/02/24 08:56:33;;;;;;;20.55;6.63;;;;;;;11.10;64.50;100273.41;5025980;28;20120;-40
2023/02/24 08:59:27;;;;;;;15.52;5.88;;;;;;;11.46;63.03;100272.69;5027121;28;20025;-35
2023/02/24 09:01:53;;;;;;;23.90;7.72;;;;;;;11.04;62.12;100244.91;5030796;28;20540;-43
2023/02/24 09:04:19;;;;;;;19.02;7.93;;;;;;;11.08;62.95;100269.34;5040339;28;20405;-39
2023/02/24 09:06:56;;;;;;;19.17;7.88;;;;;;;11.00;64.51;100239.19;5038348;28;20043;-35
2023/02/24 09:09:23;;;;;;;20.35;11.95;;;;;;;11.10;62.72;100246.72;5036912;28;20028;-35
2023/02/24 09:11:58;;;;;;;27.55;19.13;;;;;;;11.41;62.17;100242.34;5030966;28;20041;-36
2023/02/24 09:14:35;;;;;;;17.58;7.55;;;;;;;11.49;62.32;100244.72;5031088;28;20097;-39
2023/02/24 09:17:02;;;;;;;14.50;6.22;;;;;;;11.22;62.41;100244.97;5030938;28;20042;-36
2023/02/24 09:22:31;;;;;;;27.15;12.13;;;;;;;11.54;61.62;100254.75;5041803;28;20063;-39
2023/02/24 09:25:17;;;;;;;20.35;7.70;;;;;;;11.49;62.21;100249.25;5050676;28;20025;-35
2023/02/24 09:28:09;;;;;;;19.80;6.57;;;;;;;11.48;61.96;100227.06;5048567;28;20444;-38
2023/02/24 09:30:49;;;;;;;14.68;5.70;;;;;;;11.53;62.60;100240.59;5049750;28;20128;-36
2023/02/24 09:33:21;;;;;;;12.98;6.28;;;;;;;11.59;61.91;100245.03;5050518;28;20032;-35
2023/02/24 09:35:49;;;;;;;15.82;6.03;;;;;;;11.24;62.05;100236.75;5050518;28;20576;-42
2023/02/24 09:38:23;;;;;;;13.73;6.18;;;;;;;11.47;62.23;100230.78;5050465;28;20107;-39
2023/02/24 09:40:49;;;;;;;14.43;6.13;;;;;;;11.42;62.63;100212.75;5050143;28;20144;-34
2023/02/24 09:43:24;;;;;;;36.45;19.48;;;;;;;11.70;63.15;100221.31;5049095;28;20111;-38
2023/02/24 09:46:13;;;;;;;17.38;7.35;;;;;;;11.59;60.91;100201.50;5050321;28;20104;-38
2023/02/24 09:48:50;;;;;;;13.55;7.07;;;;;;;11.34;62.16;100201.53;5030723;28;20025;-38
2023/02/24 09:51:27;;;;;;;34.00;18.13;;;;;;;11.39;62.73;100207.03;5037485;28;20036;-34
2023/02/24 09:53:56;;;;;;;15.60;7.05;;;;;;;11.25;63.88;100203.66;5050326;28;20029;-37
2023/02/24 09:56:35;;;;;;;14.15;7.18;;;;;;;11.37;63.37;100188.56;5049991;28;20037;-36
2023/02/24 09:59:09;;;;;;;20.95;15.55;;;;;;;11.79;61.45;100193.22;5049673;28;20029;-40
2023/02/24 10:01:43;;;;;;;14.65;7.57;;;;;;;12.06;60.84;100186.56;5037419;28;20105;-37
2023/02/24 10:04:17;;;;;;;16.10;7.60;;;;;;;12.49;58.47;100184.75;5039638;28;20033;-40
2023/02/24 10:06:49;;;;;;;22.00;10.32;;;;;;;13.03;58.55;100177.50;5034781;28;20104;-36
2023/02/24 10:09:39;;;;;;;18.65;9.05;;;;;;;13.32;57.84;100176.81;5029912;28;20029;-41
2023/02/24 10:12:10;;;;;;;18.27;8.15;;;;;;;13.26;56.84;100170.53;5029079;28;20375;-39
2023/02/24 10:14:51;;;;;;;16.08;7.80;;;;;;;13.09;55.90;100148.97;5029886;28;20038;-39
2023/02/24 10:17:23;;;;;;;67.57;33.60;;;;;;;13.66;56.83;100172.47;5029788;28;20041;-36
2023/02/24 10:20:12;;;;;;;30.98;14.10;;;;;;;13.62;55.59;100164.06;5029705;28;20195;-37
2023/02/24 10:22:51;;;;;;;13.82;7.25;;;;;;;13.59;55.95;100156.53;5028190;28;20045;-36
2023/02/24 10:25:52;;;;;;;17.45;8.70;;;;;;;14.31;54.73;100157.09;5029891;28;20025;-35
2023/02/24 10:28:36;;;;;;;19.05;9.50;;;;;;;14.33;54.47;100155.78;5029660;28;20029;-36
2023/02/24 10:31:09;;;;;;;14.40;8.23;;;;;;;14.26;54.00;100152.44;5030076;28;20034;-38
2023/02/24 10:33:44;;;;;;;16.85;9.20;;;;;;;14.35;54.00;100115.31;5029396;28;20473;-39
2023/02/24 10:36:17;;;;;;;15.48;7.95;;;;;;;14.18;54.54;100137.56;5028341;28;20033;-37
2023/02/24 10:38:44;;;;;;;15.43;8.23;;;;;;;14.40;54.27;100137.66;5029628;28;20088;-33
2023/02/24 10:41:12;;;;;;;16.25;8.65;;;;;;;14.58;53.58;100133.16;5029315;28;20061;-37
2023/02/24 10:43:44;;;;;;;16.08;8.75;;;;;;;13.97;53.46;100106.84;5029190;28;20037;-37
2023/02/24 10:46:42;;;;;;;17.58;8.35;;;;;;;14.75;53.39;100111.69;5029489;28;20037;-34
2023/02/24 10:49:15;;;;;;;18.30;8.85;;;;;;;14.84;52.04;100089.53;5027466;28;20045;-36
2023/02/24 10:51:46;;;;;;;21.88;9.60;;;;;;;14.81;52.29;100095.41;5028960;28;20041;-35
2023/02/24 10:54:43;;;;;;;18.67;9.35;;;;;;;15.23;51.99;100100.28;5029218;28;20481;-38
2023/02/24 10:57:17;;;;;;;18.23;8.30;;;;;;;15.30;50.20;100080.47;5029087;28;20033;-33
2023/02/24 11:03:13;;;;;;;17.92;8.85;;;;;;;15.31;51.93;100079.44;5028249;28;20077;-39
2023/02/24 11:11:24;;;;;;;21.27;10.65;;;;;;;15.44;51.88;100063.72;5029075;28;20464;-36
2023/02/24 11:19:49;;;;;;;17.88;9.45;;;;;;;15.66;50.79;100070.97;5035856;28;20099;-38
2023/02/24 11:22:23;;;;;;;20.73;8.90;;;;;;;15.07;51.38;100052.78;5037098;28;20038;-39
2023/02/24 11:24:50;;;;;;;19.30;9.80;;;;;;;15.41;50.51;100044.63;5035108;28;20037;-36
2023/02/24 11:27:20;;;;;;;17.25;9.27;;;;;;;15.76;49.31;100033.47;5037578;28;20032;-38
2023/02/24 11:29:54;;;;;;;22.40;13.90;;;;;;;15.97;48.20;100033.66;5038209;28;20033;-39
2023/02/24 11:32:44;;;;;;;18.60;9.82;;;;;;;16.29;48.69;100044.44;5037275;28;20036;-36
2023/02/24 11:35:25;;;;;;;19.92;9.93;;;;;;;15.96;48.77;100040.91;5041091;28;20098;-38
2023/02/24 11:38:26;;;;;;;21.98;9.77;;;;;;;15.83;48.56;100035.94;5035072;28;20033;-36
2023/02/24 11:41:04;;;;;;;24.48;10.50;;;;;;;15.74;48.79;100026.72;5033779;28;20045;-33
2023/02/24 11:43:34;;;;;;;20.95;11.35;;;;;;;16.31;48.65;100015.38;5047642;28;20036;-36
2023/02/24 11:46:11;;;;;;;22.65;10.55;;;;;;;16.47;47.77;100017.09;5048142;28;20037;-34
2023/02/24 11:48:46;;;;;;;21.52;10.82;;;;;;;17.05;45.60;100009.09;5047906;28;20028;-37
2023/02/24 11:51:15;;;;;;;26.45;13.50;;;;;;;16.96;45.46;99991.00;5046291;28;20394;-34
2023/02/24 11:53:58;;;;;;;26.67;13.65;;;;;;;16.91;46.39;99999.88;5047620;28;20032;-34
2023/02/24 11:56:37;;;;;;;25.42;12.93;;;;;;;16.49;47.26;99995.31;5047719;28;20061;-33
2023/02/24 11:59:13;;;;;;;27.25;13.98;;;;;;;17.18;45.14;99988.97;5047870;28;20035;-36
2023/02/24 12:01:49;;;;;;;28.70;15.48;;;;;;;17.97;43.44;99984.25;5043085;28;20159;-38
2023/02/24 12:04:36;;;;;;;32.13;15.70;;;;;;;17.40;44.20;99988.72;5027071;28;20025;-39
2023/02/24 12:07:23;;;;;;;29.45;16.05;;;;;;;17.38;43.76;99987.38;5027232;28;20021;-37
2023/02/24 12:09:54;;;;;;;25.63;14.90;;;;;;;16.65;45.81;99970.09;5027249;28;20033;-38
2023/02/24 12:12:26;;;;;;;29.65;16.00;;;;;;;16.78;46.43;99974.22;5027118;28;20158;-35
2023/02/24 12:15:09;;;;;;;26.30;15.38;;;;;;;16.52;46.69;99967.88;5026750;28;20482;-36